ADDS METAR Data INFO
IDs: Format: Raw Decoded Include TAF

Data at: 0501 UTC 21 Feb 2018

KFRG 201503Z 25010KT 4SM BR OVC003 12/11 A3034 RMK AO2 T01170111
KFRG 201453Z 25009KT 2 1/2SM BR OVC003 11/11 A3034 RMK AO2 SLP276 T01110111 51001
KFRG 201449Z 25008KT 1 3/4SM BR OVC003 11/11 A3034 RMK AO2
KFRG 201435Z 25010KT 1SM BR OVC002 11/11 A3034 RMK AO2 T01110106
KFRG 201424Z 25008KT 3/4SM BR OVC002 11/11 A3034 RMK AO2 T01060106
KFRG 201408Z 25006KT 1SM BR OVC002 10/09 A3034 RMK AO2 T01000094
KFRG 201353Z 24005KT 3/4SM BR OVC003 09/09 A3034 RMK AO2 SLP276 T00940094
KFRG 201320Z 23005KT 1/2SM FG VV003 08/08 A3034 RMK AO2 T00830083
KFRG 201253Z 21004KT 1/4SM FG VV003 08/08 A3034 RMK AO2 SLP274 T00830083
KFRG 201234Z 24003KT 1/4SM FG VV003 08/08 A3034 RMK AO2 T00780078
KFRG 201206Z 00000KT 1/4SM FG VV002 08/08 A3033 RMK AO2 T00780078
KFRG 201153Z 22003KT 1/2SM FG VV002 07/07 A3032 RMK AO2 SLP269 70002 T00720072 10078 20072 53009
KFRG 201142Z 00000KT 1/2SM FG VV002 07/07 A3032 RMK AO2 T00720072
KFRG 201053Z AUTO 18005KT 1/4SM FG VV002 07/07 A3031 RMK AO2 SLP264 T00720072
KFRG 200953Z AUTO 19003KT 1/4SM FG VV002 07/07 A3030 RMK AO2 SLP262 T00720072
KFRG 200915Z AUTO 19004KT 1/4SM FG VV002 07/07 A3030 RMK AO2 T00720072
KFRG 200853Z AUTO 19005KT 1/2SM FG VV002 07/07 A3030 RMK AO2 SLP260 T00720072 56006
KFRG 200753Z AUTO 24006KT 1/2SM FG VV002 07/07 A3030 RMK AO2 SLP261 T00720072
KFRG 200653Z AUTO 21008KT 1/2SM FG VV002 07/07 A3031 RMK AO2 SLP264 T00720072
KFRG 200553Z AUTO 21010KT 1/2SM FG VV002 08/08 A3032 RMK AO2 SLP266 60002 T00780078 10083 20072 58012
KFRG 200453Z AUTO 22008KT 1/2SM FG VV002 08/08 A3033 RMK AO2 SLP271 T00780078 400891017
KFRG 200420Z AUTO 23010KT 3/4SM BR VV002 08/08 A3035 RMK AO2 T00830083
KFRG 200404Z AUTO 21011G18KT 1SM BR OVC002 08/08 A3034 RMK AO2 T00830083
KFRG 200353Z AUTO 21011KT 1/2SM BR OVC002 08/08 A3035 RMK AO2 SFC VIS 1 1/4 SLP276 T00830078
KFRG 200349Z 21011KT 1/2SM BR OVC002 08/08 A3035 RMK AO2 SFC VIS 1 1/4
KFRG 200342Z 21010KT 1/2SM BR OVC003 08/08 A3035 RMK AO2 SFC VIS 1 1/4 T00830078
KFRG 200304Z 20011G16KT 1 1/2SM BR OVC003 08/08 A3035 RMK AO2 TWR VIS 1 3/4 T00830083
KFRG 200253Z 22010KT 1 1/2SM BR OVC005 08/08 A3035 RMK AO2 TWR VIS 1 3/4 RAE25 CIG 003V009 SLP278 P0000 60002 T00830078 58005
KFRG 200153Z 22009KT 1 3/4SM -RA OVC005 08/07 A3037 RMK AO2 SFC VIS 8 RAB0056E40B52 SLP284 P0002 T00780072
KFRG 200146Z 22010KT 1 3/4SM OVC005 08/07 A3037 RMK AO2 SFC VIS 8 RAB0056E40 P0002 T00780072
KFRG 200053Z 20011KT 1 3/4SM OVC004 07/07 A3036 RMK AO2 SFC VIS 7 SLP279 T00720072
KFRG 200037Z 21010KT 1 3/4SM BR OVC004 08/07 A3036 RMK AO2 SFC VIS 5 T00780072
KFRG 192353Z 20009KT 1 3/4SM BKN008 OVC031 08/07 A3037 RMK AO2 SFC VIS 8 RAE39 SLP283 P0000 60000 T00780072 10083 20072 56011
KFRG 192304Z 20008KT 1 3/4SM -RA BKN008 OVC031 07/07 A3038 RMK AO2 SFC VIS 7 P0000 T00720067
KFRG 192300Z 21008KT 3SM -RA OVC031 07/06 A3038 RMK AO2 SFC VIS 8 P0000 T00720061
KFRG 192253Z 20010KT 3SM -RA BKN008 OVC031 07/06 A3038 RMK AO2 SFC VIS 10 RAB53 SLP287 P0000 T00720061
KFRG 192225Z 20006KT 3SM BKN008 OVC031 07/06 A3037 RMK AO2 SFC VIS 10 T00720061
KFRG 192153Z 19008KT 10SM BKN016 OVC031 08/06 A3038 RMK AO2 SLP289 T00780061
KFRG 192053Z 20008KT 10SM BKN024 OVC030 08/06 A3040 RMK AO2 SLP294 T00780056 56017
KFRG 192034Z 20007KT 10SM SCT020 OVC030 08/05 A3040 RMK AO2 T00780050
KFRG 192025Z 20009KT 10SM BKN021 OVC030 08/05 A3040 RMK AO2 T00780050
KFRG 191953Z 20008KT 10SM OVC038 08/05 A3041 RMK AO2 SLP296 T00780050
KFRG 191853Z 19007KT 10SM OVC044 08/05 A3041 RMK AO2 SLP299 T00830050
KFRG 191753Z 19010KT 10SM OVC050 08/04 A3045 RMK AO2 SLP311 T00830044 10089 21011 58026